Time;durP1;ratioP1;P1;durP2;ratioP2;P2;SDS_P1;SDS_P2;PMS_P1;PMS_P2;Temp;Humidity;BMP_temperature;BMP_pressure;BME280_temperature;BME280_humidity;BME280_pressure;Samples;Min_cycle;Max_cycle;Signal;HPM_P1;HPM_P2
2022/07/09 00:00:13;;;;;;;5.87;2.43;;;13.40;99.90;;;;;;4973453;28;20270;-76
2022/07/09 00:02:38;;;;;;;4.63;3.13;;;13.40;99.90;;;;;;4972906;28;20195;-76
2022/07/09 00:05:04;;;;;;;4.10;2.17;;;13.30;99.90;;;;;;4973272;28;20415;-76
2022/07/09 00:07:30;;;;;;;3.93;2.47;;;13.30;99.90;;;;;;4973502;28;20671;-76
2022/07/09 00:09:55;;;;;;;8.23;2.30;;;13.20;99.90;;;;;;4973486;28;20462;-75
2022/07/09 00:12:21;;;;;;;6.93;3.30;;;13.20;99.90;;;;;;4972514;28;20200;-76
2022/07/09 00:14:46;;;;;;;4.80;2.73;;;13.20;99.90;;;;;;4973327;28;20176;-77
2022/07/09 00:17:12;;;;;;;3.03;2.37;;;13.20;99.90;;;;;;4973242;28;20176;-76
2022/07/09 00:19:38;;;;;;;6.83;2.53;;;13.20;99.90;;;;;;4973176;28;20663;-76
2022/07/09 00:22:05;;;;;;;5.73;2.60;;;13.20;99.90;;;;;;4972134;28;20211;-76
2022/07/09 00:24:31;;;;;;;4.03;2.43;;;13.10;99.90;;;;;;4971467;28;20727;-75
2022/07/09 00:26:56;;;;;;;3.57;3.27;;;13.10;99.90;;;;;;4973157;28;20415;-76
2022/07/09 00:29:22;;;;;;;5.07;2.33;;;13.10;99.90;;;;;;4972686;28;20260;-76
2022/07/09 00:31:47;;;;;;;6.67;2.90;;;13.00;99.90;;;;;;4972018;28;20207;-73
2022/07/09 00:34:13;;;;;;;3.00;2.70;;;12.90;99.90;;;;;;4973044;28;20576;-75
2022/07/09 00:36:38;;;;;;;6.37;3.07;;;12.90;99.90;;;;;;4972238;28;20203;-76
2022/07/09 00:39:04;;;;;;;2.80;2.27;;;12.90;99.90;;;;;;4972490;28;20675;-76
2022/07/09 00:41:30;;;;;;;5.37;2.53;;;12.90;99.90;;;;;;4971957;28;20595;-75
2022/07/09 00:43:55;;;;;;;6.20;2.77;;;12.80;99.90;;;;;;4972782;28;20263;-74
2022/07/09 00:46:21;;;;;;;5.10;2.70;;;12.80;99.90;;;;;;4972870;28;20208;-76
2022/07/09 00:48:47;;;;;;;5.50;3.10;;;12.80;99.90;;;;;;4973347;28;20211;-75
2022/07/09 00:51:14;;;;;;;2.80;2.57;;;12.80;99.90;;;;;;4972672;28;20577;-77
2022/07/09 00:53:40;;;;;;;6.23;3.10;;;12.80;99.90;;;;;;4971679;28;20667;-76
2022/07/09 00:56:06;;;;;;;2.67;2.57;;;12.70;99.90;;;;;;4972535;28;20477;-77
2022/07/09 00:58:33;;;;;;;3.90;2.30;;;12.70;99.90;;;;;;4972564;28;20427;-76
2022/07/09 02:31:35;;;;;;;5.83;3.10;;;11.90;99.90;;;;;;5704126;23;20509;-73
2022/07/09 02:34:01;;;;;;;3.53;2.40;;;11.90;99.90;;;;;;4972865;28;20485;-75
2022/07/09 02:36:26;;;;;;;4.10;3.00;;;11.90;99.90;;;;;;4965575;28;20194;-74
2022/07/09 02:38:52;;;;;;;6.47;3.57;;;11.90;99.90;;;;;;4974425;28;20193;-76
2022/07/09 02:41:18;;;;;;;3.70;3.40;;;11.90;99.90;;;;;;4973366;28;20206;-75
2022/07/09 02:43:43;;;;;;;3.53;3.23;;;11.90;99.90;;;;;;4974357;28;20184;-76
2022/07/09 02:46:10;;;;;;;5.17;2.97;;;11.90;99.90;;;;;;4973941;28;20776;-76
2022/07/09 02:48:35;;;;;;;3.27;3.00;;;11.80;99.90;;;;;;4974153;28;20939;-75
2022/07/09 02:51:01;;;;;;;6.60;3.10;;;11.80;99.90;;;;;;4973390;28;20435;-76
2022/07/09 02:53:27;;;;;;;5.37;3.40;;;11.80;99.90;;;;;;4973957;28;20176;-75
2022/07/09 02:55:52;;;;;;;4.00;3.27;;;11.70;99.90;;;;;;4973988;28;20259;-76
2022/07/09 02:58:18;;;;;;;7.60;3.30;;;11.70;99.90;;;;;;4973570;28;20572;-76
2022/07/09 03:00:43;;;;;;;3.47;3.17;;;11.70;99.90;;;;;;4972941;28;20285;-76
2022/07/09 03:03:09;;;;;;;4.63;3.20;;;11.80;99.90;;;;;;4973311;28;20180;-77
2022/07/09 03:05:35;;;;;;;3.97;3.13;;;11.80;99.90;;;;;;4973554;28;20188;-75
2022/07/09 03:08:01;;;;;;;4.30;3.03;;;11.70;99.90;;;;;;4973860;28;20184;-75
2022/07/09 03:10:27;;;;;;;3.10;2.90;;;11.60;99.90;;;;;;4973333;28;20502;-75
2022/07/09 03:12:52;;;;;;;3.93;3.50;;;11.60;99.90;;;;;;4973440;28;20434;-75
2022/07/09 03:15:18;;;;;;;9.07;3.20;;;11.60;99.90;;;;;;4973583;28;20776;-75
2022/07/09 03:17:45;;;;;;;5.63;3.57;;;11.50;99.90;;;;;;4973877;28;20672;-75
2022/07/09 03:20:11;;;;;;;4.17;3.77;;;11.50;99.90;;;;;;4973041;28;20562;-75
2022/07/09 03:22:37;;;;;;;8.90;3.93;;;11.50;99.90;;;;;;4972910;28;20442;-75
2022/07/09 03:25:04;;;;;;;4.70;3.30;;;11.60;99.90;;;;;;4973422;28;20247;-75
2022/07/09 03:27:29;;;;;;;6.90;3.33;;;11.50;99.90;;;;;;4972835;28;20186;-75
2022/07/09 03:29:55;;;;;;;4.10;3.10;;;11.50;99.90;;;;;;4972940;28;20454;-74
2022/07/09 03:32:21;;;;;;;3.20;3.00;;;11.50;99.90;;;;;;4971682;28;20293;-75
2022/07/09 03:34:47;;;;;;;5.40;3.40;;;11.50;99.90;;;;;;4973746;28;20172;-75
2022/07/09 03:37:12;;;;;;;8.57;3.33;;;11.50;99.90;;;;;;4972620;28;20404;-75
2022/07/09 03:39:38;;;;;;;7.03;3.50;;;11.50;99.90;;;;;;4973209;28;20190;-75
2022/07/09 03:42:06;;;;;;;4.17;3.87;;;11.40;99.90;;;;;;4971411;28;20203;-75
2022/07/09 03:44:34;;;;;;;3.00;2.80;;;11.40;99.90;;;;;;4972401;28;20176;-75
2022/07/09 03:47:00;;;;;;;5.33;3.33;;;11.50;99.90;;;;;;4972808;28;20419;-75
2022/07/09 03:49:26;;;;;;;4.00;3.60;;;11.50;99.90;;;;;;4972829;28;20469;-75
2022/07/09 03:51:52;;;;;;;6.90;3.20;;;11.50;99.90;;;;;;4972356;28;20563;-75
2022/07/09 03:54:17;;;;;;;5.27;3.80;;;11.50;99.90;;;;;;4972889;28;20702;-75
2022/07/09 03:56:43;;;;;;;7.90;3.80;;;11.50;99.90;;;;;;4972412;28;20184;-75
2022/07/09 03:59:08;;;;;;;3.47;3.17;;;11.60;99.90;;;;;;4972628;28;20176;-76
2022/07/09 04:01:34;;;;;;;4.87;3.50;;;11.50;99.90;;;;;;4971925;28;20718;-75
2022/07/09 04:03:59;;;;;;;8.13;3.53;;;11.50;99.90;;;;;;4972728;28;20522;-75
2022/07/09 04:06:25;;;;;;;4.43;3.70;;;11.60;99.90;;;;;;4972280;28;20644;-74
2022/07/09 04:08:51;;;;;;;5.10;3.40;;;11.60;99.90;;;;;;4972591;28;20270;-75
2022/07/09 04:11:16;;;;;;;4.00;3.70;;;11.60;99.90;;;;;;4971321;28;20832;-75
2022/07/09 04:13:42;;;;;;;6.43;3.80;;;11.60;99.90;;;;;;4972631;28;20172;-75
2022/07/09 04:16:07;;;;;;;3.73;3.33;;;11.70;99.90;;;;;;4971806;28;20184;-75
2022/07/09 04:18:34;;;;;;;6.23;3.70;;;11.70;99.90;;;;;;4972726;28;20183;-75
2022/07/09 04:21:00;;;;;;;3.50;3.20;;;11.70;99.90;;;;;;4971622;28;20238;-75
2022/07/09 04:23:26;;;;;;;10.43;3.80;;;11.80;99.90;;;;;;4971549;28;20447;-74
2022/07/09 04:25:52;;;;;;;6.57;3.53;;;11.80;99.90;;;;;;4972495;28;20238;-75
2022/07/09 04:28:18;;;;;;;4.00;3.17;;;11.90;99.90;;;;;;4970097;28;20455;-76
2022/07/09 04:30:45;;;;;;;4.73;3.20;;;12.00;99.90;;;;;;4971010;28;20924;-76
2022/07/09 04:33:10;;;;;;;5.93;3.40;;;12.00;99.90;;;;;;4972116;28;20541;-76
2022/07/09 04:35:36;;;;;;;5.67;3.50;;;12.10;99.90;;;;;;4972145;28;20498;-76
2022/07/09 04:38:02;;;;;;;4.23;3.40;;;12.10;99.90;;;;;;4971768;28;20683;-76
2022/07/09 04:40:28;;;;;;;5.33;3.57;;;12.20;99.90;;;;;;4971876;28;20544;-75
2022/07/09 04:42:53;;;;;;;4.13;3.83;;;12.30;99.90;;;;;;4971703;28;20435;-77
2022/07/09 04:45:19;;;;;;;4.03;3.57;;;12.30;99.90;;;;;;4972444;28;20248;-76
2022/07/09 04:47:44;;;;;;;4.53;4.13;;;12.40;99.90;;;;;;4972032;28;20214;-74
2022/07/09 04:50:11;;;;;;;4.70;2.90;;;12.50;99.90;;;;;;4971960;28;20257;-76
2022/07/09 04:52:37;;;;;;;7.83;3.60;;;12.50;99.90;;;;;;4971330;28;20330;-77
2022/07/09 04:55:03;;;;;;;3.97;3.57;;;12.60;99.90;;;;;;4973254;28;20420;-77
2022/07/09 04:57:29;;;;;;;7.47;3.73;;;12.70;99.90;;;;;;4973094;28;20418;-77
2022/07/09 05:00:01;;;;;;;5.43;4.07;;;12.90;99.90;;;;;;4972333;28;20415;-77
2022/07/09 05:02:27;;;;;;;4.10;3.20;;;13.00;99.90;;;;;;4970600;28;20211;-76
2022/07/09 05:04:53;;;;;;;4.47;4.03;;;13.10;99.90;;;;;;4971484;28;20912;-78
2022/07/09 05:07:18;;;;;;;4.83;4.37;;;13.30;99.90;;;;;;4971474;28;20429;-76
2022/07/09 05:09:44;;;;;;;9.00;3.60;;;13.50;99.90;;;;;;4971823;28;20220;-75
2022/07/09 05:12:10;;;;;;;6.23;3.77;;;13.80;99.90;;;;;;4970741;28;20551;-76
2022/07/09 05:14:37;;;;;;;4.63;3.63;;;14.00;99.90;;;;;;4971399;28;20172;-77
2022/07/09 05:17:03;;;;;;;5.17;4.27;;;14.20;99.90;;;;;;4970129;28;20426;-76
2022/07/09 05:19:29;;;;;;;6.17;3.00;;;14.70;99.90;;;;;;4971511;28;20425;-76
2022/07/09 05:21:54;;;;;;;3.90;3.60;;;15.30;99.90;;;;;;4970734;28;20440;-76
2022/07/09 05:24:19;;;;;;;4.03;3.60;;;16.00;99.90;;;;;;4971082;28;20184;-76
2022/07/09 05:26:45;;;;;;;5.37;3.50;;;16.50;99.90;;;;;;4971678;28;20176;-74
2022/07/09 05:29:10;;;;;;;5.80;3.60;;;16.90;99.90;;;;;;4971549;28;20211;-77
2022/07/09 05:31:36;;;;;;;6.37;3.80;;;17.60;99.90;;;;;;4972174;28;20281;-78
2022/07/09 05:34:02;;;;;;;4.23;3.00;;;18.00;99.90;;;;;;4972031;28;20204;-77
2022/07/09 05:36:30;;;;;;;4.80;3.77;;;18.40;99.90;;;;;;4972280;28;20180;-76
2022/07/09 05:38:57;;;;;;;6.60;3.37;;;18.90;99.90;;;;;;4972496;28;20509;-76
2022/07/09 05:41:22;;;;;;;4.13;2.83;;;19.00;99.90;;;;;;4972201;28;20439;-74
2022/07/09 05:43:48;;;;;;;5.03;3.60;;;19.20;99.90;;;;;;4972522;28;20849;-74
2022/07/09 05:46:13;;;;;;;5.90;3.37;;;19.50;99.90;;;;;;4972094;28;20679;-75
2022/07/09 05:48:39;;;;;;;6.03;3.33;;;19.80;99.90;;;;;;4972130;28;20214;-74
2022/07/09 05:51:04;;;;;;;6.20;3.30;;;20.00;99.90;;;;;;4971568;28;20254;-72
2022/07/09 05:53:30;;;;;;;3.87;3.20;;;20.20;99.90;;;;;;4972377;28;20176;-74
2022/07/09 05:55:56;;;;;;;4.83;3.20;;;20.40;99.90;;;;;;4972451;28;20200;-76
2022/07/09 05:58:21;;;;;;;6.90;3.43;;;20.60;99.90;;;;;;4972392;28;20188;-75
2022/07/09 06:00:47;;;;;;;4.10;3.10;;;20.80;99.90;;;;;;4971555;28;20242;-72
2022/07/09 06:03:12;;;;;;;9.00;3.20;;;20.90;99.90;;;;;;4972171;28;20191;-74
2022/07/09 06:05:38;;;;;;;5.17;3.30;;;21.30;99.90;;;;;;4975510;28;20275;-75
2022/07/09 06:08:03;;;;;;;9.03;2.93;;;21.40;99.90;;;;;;4975780;28;20580;-75
2022/07/09 06:10:29;;;;;;;4.37;3.83;;;21.40;99.90;;;;;;4975486;28;20194;-75
2022/07/09 06:12:54;;;;;;;3.80;2.97;;;21.30;99.90;;;;;;4975695;28;20267;-74
2022/07/09 06:15:20;;;;;;;3.20;2.30;;;21.30;99.90;;;;;;4975703;28;20176;-75
2022/07/09 06:17:45;;;;;;;4.80;3.17;;;21.20;99.90;;;;;;4975434;28;20179;-74
2022/07/09 06:20:11;;;;;;;5.00;3.60;;;21.20;99.90;;;;;;4975558;28;20191;-75
2022/07/09 06:22:38;;;;;;;6.13;3.27;;;21.50;99.90;;;;;;4975231;28;20199;-75
2022/07/09 06:25:05;;;;;;;6.13;3.43;;;21.70;99.90;;;;;;4975863;28;21044;-74
2022/07/09 06:27:30;;;;;;;6.57;2.97;;;21.70;99.90;;;;;;4975302;28;20914;-75
2022/07/09 06:29:56;;;;;;;7.10;3.40;;;21.80;99.90;;;;;;4975383;28;20550;-75
2022/07/09 06:32:21;;;;;;;3.67;2.87;;;22.10;99.90;;;;;;4974511;28;20983;-74
2022/07/09 06:34:47;;;;;;;6.50;2.73;;;22.30;99.90;;;;;;4975294;28;20189;-73
2022/07/09 06:37:12;;;;;;;3.30;2.60;;;22.20;99.90;;;;;;4974666;28;20203;-75
2022/07/09 06:39:44;;;;;;;10.30;2.67;;;22.20;99.90;;;;;;4975311;28;20172;-75
2022/07/09 06:42:11;;;;;;;4.30;2.57;;;22.00;99.90;;;;;;4974443;28;20545;-75
2022/07/09 06:44:37;;;;;;;3.73;3.00;;;21.60;99.90;;;;;;4975456;28;20404;-75
2022/07/09 06:47:04;;;;;;;9.90;2.83;;;21.40;99.90;;;;;;4960124;28;20444;-74
2022/07/09 06:49:30;;;;;;;3.30;2.67;;;21.20;99.90;;;;;;4955794;28;20490;-75
2022/07/09 06:51:56;;;;;;;5.60;3.40;;;21.30;99.90;;;;;;4955320;28;20460;-75
2022/07/09 06:54:22;;;;;;;5.40;2.97;;;21.40;99.90;;;;;;4955872;28;20528;-75
2022/07/09 06:56:48;;;;;;;4.30;2.73;;;22.00;99.90;;;;;;4955870;28;20180;-73
2022/07/09 06:59:13;;;;;;;9.60;3.03;;;22.40;99.90;;;;;;4955768;28;20968;-73
2022/07/09 07:01:39;;;;;;;3.57;2.30;;;22.70;99.90;;;;;;4956122;28;20220;-74
2022/07/09 07:04:05;;;;;;;5.33;2.83;;;23.20;99.90;;;;;;4955707;28;20176;-74
2022/07/09 07:06:30;;;;;;;8.83;2.57;;;23.70;99.90;;;;;;4964491;28;20242;-74
2022/07/09 07:08:56;;;;;;;4.33;2.57;;;23.90;99.90;;;;;;4986222;28;20243;-74
2022/07/09 07:11:21;;;;;;;3.53;2.40;;;24.10;99.90;;;;;;4989606;28;20234;-74
2022/07/09 07:13:47;;;;;;;3.20;2.60;;;24.20;99.90;;;;;;4993622;28;20180;-72
2022/07/09 07:16:12;;;;;;;5.00;3.20;;;24.30;99.90;;;;;;4993646;28;20675;-75
2022/07/09 07:18:38;;;;;;;2.30;2.03;;;24.60;99.90;;;;;;4993726;28;20187;-74
2022/07/09 07:21:03;;;;;;;5.47;2.60;;;25.00;99.90;;;;;;4992893;28;20265;-75
2022/07/09 07:23:31;;;;;;;4.60;2.80;;;25.30;99.90;;;;;;4994192;28;20532;-74
2022/07/09 07:25:57;;;;;;;5.33;2.60;;;25.40;99.90;;;;;;4991586;28;20249;-74
2022/07/09 07:28:23;;;;;;;3.73;1.97;;;25.40;99.90;;;;;;4994504;28;20559;-74
2022/07/09 07:30:48;;;;;;;2.33;2.03;;;25.40;99.90;;;;;;4971332;28;20469;-74
2022/07/09 07:33:14;;;;;;;4.93;2.30;;;25.70;99.90;;;;;;4988236;28;20547;-75
2022/07/09 07:35:39;;;;;;;4.67;2.40;;;25.90;99.90;;;;;;4987190;28;20179;-75
2022/07/09 07:38:05;;;;;;;4.00;2.20;;;25.80;99.90;;;;;;4972728;28;20241;-73
2022/07/09 07:40:31;;;;;;;9.07;2.60;;;25.80;99.90;;;;;;4992217;28;20175;-75
2022/07/09 07:42:56;;;;;;;2.30;2.10;;;25.80;99.90;;;;;;4977476;28;20209;-74
2022/07/09 07:45:22;;;;;;;5.53;2.17;;;26.00;99.90;;;;;;4965735;28;20672;-74
2022/07/09 07:47:47;;;;;;;4.13;2.30;;;26.10;99.90;;;;;;4965733;28;20205;-74
2022/07/09 07:50:13;;;;;;;8.90;2.37;;;26.20;99.90;;;;;;4982241;28;20246;-74
2022/07/09 07:52:38;;;;;;;4.83;2.23;;;26.40;99.90;;;;;;4980651;28;20304;-74
2022/07/09 07:55:04;;;;;;;5.70;2.03;;;26.50;99.90;;;;;;4984457;28;20187;-77
2022/07/09 07:57:30;;;;;;;5.47;2.30;;;26.50;99.90;;;;;;4992104;28;20275;-74
2022/07/09 07:59:55;;;;;;;2.80;1.87;;;26.70;99.90;;;;;;4992720;28;20427;-75
2022/07/09 08:02:21;;;;;;;6.77;2.23;;;26.50;99.90;;;;;;4991403;28;20569;-75
2022/07/09 08:04:46;;;;;;;6.87;1.63;;;26.70;99.90;;;;;;4993336;28;20245;-74
2022/07/09 08:07:12;;;;;;;5.40;2.13;;;27.00;99.90;;;;;;4993046;28;20520;-74
2022/07/09 08:09:37;;;;;;;4.23;2.00;;;26.80;99.90;;;;;;4993378;28;20191;-75
2022/07/09 08:12:03;;;;;;;2.03;1.60;;;26.90;99.90;;;;;;4992190;28;20199;-75
2022/07/09 08:14:29;;;;;;;3.33;1.90;;;26.90;99.90;;;;;;4992015;28;20190;-76
2022/07/09 08:16:54;;;;;;;4.60;1.87;;;26.90;99.90;;;;;;4992103;28;20669;-74
2022/07/09 08:19:20;;;;;;;6.17;1.93;;;26.80;99.90;;;;;;4992401;28;20661;-75
2022/07/09 08:21:45;;;;;;;2.50;1.30;;;26.80;99.90;;;;;;4991678;28;20203;-73
2022/07/09 08:24:11;;;;;;;2.73;1.57;;;26.40;99.90;;;;;;4992145;28;20262;-75
2022/07/09 08:26:36;;;;;;;4.70;1.40;;;26.30;99.90;;;;;;4991495;28;20555;-76
2022/07/09 08:29:02;;;;;;;2.07;1.20;;;26.70;99.90;;;;;;4992310;28;20671;-77
2022/07/09 08:31:27;;;;;;;4.50;1.90;;;26.80;99.90;;;;;;4991269;28;20441;-75
2022/07/09 08:33:53;;;;;;;4.00;1.87;;;27.10;99.90;;;;;;4991969;28;20608;-76
2022/07/09 08:36:19;;;;;;;3.63;2.17;;;27.60;99.90;;;;;;4992201;28;20175;-75
2022/07/09 08:38:44;;;;;;;2.90;1.50;;;27.80;99.90;;;;;;4992025;28;20176;-73
2022/07/09 08:41:10;;;;;;;2.73;1.60;;;27.70;99.90;;;;;;4991686;28;20191;-74
2022/07/09 08:43:37;;;;;;;5.07;1.73;;;27.80;99.90;;;;;;4991920;28;20233;-76
2022/07/09 08:46:04;;;;;;;4.93;1.53;;;28.00;99.90;;;;;;4991691;28;20179;-75
2022/07/09 08:48:34;;;;;;;3.70;1.80;;;28.20;99.90;;;;;;4991767;28;20454;-76
2022/07/09 08:51:03;;;;;;;5.63;2.33;;;28.40;99.90;;;;;;4991451;28;20799;-75
2022/07/09 08:53:29;;;;;;;2.43;1.87;;;28.70;99.90;;;;;;4991796;28;20989;-75
2022/07/09 08:55:56;;;;;;;2.93;2.13;;;28.70;99.90;;;;;;4991493;28;20414;-76
2022/07/09 08:58:23;;;;;;;3.43;1.60;;;29.00;99.90;;;;;;4991609;28;20171;-76
2022/07/09 09:00:52;;;;;;;1.77;1.30;;;28.90;99.90;;;;;;4991199;28;20411;-76
2022/07/09 09:03:18;;;;;;;2.90;1.70;;;29.20;99.90;;;;;;4991609;28;20419;-75
2022/07/09 09:05:44;;;;;;;2.13;1.40;;;29.10;99.90;;;;;;4991682;28;20410;-76
2022/07/09 09:08:22;;;;;;;2.47;1.60;;;29.40;99.90;;;;;;4991315;28;20274;-74
2022/07/09 09:10:47;;;;;;;2.20;1.67;;;30.20;99.90;;;;;;4990841;28;20992;-76
2022/07/09 09:13:16;;;;;;;3.23;1.10;;;30.30;99.60;;;;;;4991221;28;20419;-78
2022/07/09 09:15:43;;;;;;;2.90;1.20;;;30.70;99.90;;;;;;4991477;28;20199;-75
2022/07/09 09:18:08;;;;;;;3.43;1.10;;;30.30;99.90;;;;;;4991309;28;20406;-76
2022/07/09 09:20:34;;;;;;;1.10;1.00;;;30.30;99.90;;;;;;4990948;28;20934;-76
2022/07/09 09:23:02;;;;;;;2.70;0.80;;;30.00;99.50;;;;;;4991372;28;20237;-75
2022/07/09 09:25:28;;;;;;;3.13;1.00;;;30.40;99.30;;;;;;4991516;28;20168;-75
2022/07/09 09:27:56;;;;;;;2.00;1.00;;;30.60;98.60;;;;;;4991545;28;20828;-75
2022/07/09 09:30:22;;;;;;;2.00;1.10;;;30.80;98.70;;;;;;4991130;28;20580;-75
2022/07/09 09:33:00;;;;;;;0.90;0.73;;;30.10;97.50;;;;;;4990839;28;20462;-76
2022/07/09 09:35:45;;;;;;;3.17;1.17;;;30.10;97.50;;;;;;4991273;28;20496;-73
2022/07/09 09:38:11;;;;;;;0.90;0.60;;;30.50;97.20;;;;;;4991573;28;20406;-76
2022/07/09 09:40:37;;;;;;;1.80;0.90;;;31.00;96.60;;;;;;4994590;28;20417;-75
2022/07/09 09:43:03;;;;;;;3.13;1.07;;;31.40;96.60;;;;;;4995229;28;20957;-75
2022/07/09 09:45:29;;;;;;;2.53;1.10;;;31.50;94.80;;;;;;4994788;28;20410;-76
2022/07/09 09:47:54;;;;;;;1.63;1.03;;;31.40;95.70;;;;;;4995459;28;20416;-75
2022/07/09 09:50:22;;;;;;;2.33;0.80;;;31.80;94.60;;;;;;4995498;28;20214;-75
2022/07/09 09:52:51;;;;;;;1.10;0.70;;;31.70;93.80;;;;;;4994452;28;20192;-76
2022/07/09 09:55:18;;;;;;;2.53;0.73;;;31.70;95.20;;;;;;4994918;28;20426;-76
2022/07/09 09:57:44;;;;;;;1.00;0.90;;;31.20;93.90;;;;;;4995179;28;20477;-77
2022/07/09 10:00:14;;;;;;;0.80;0.80;;;30.40;94.10;;;;;;4994381;28;20929;-75
2022/07/09 10:02:47;;;;;;;3.97;1.37;;;29.90;95.30;;;;;;4994326;28;20442;-74
2022/07/09 10:05:17;;;;;;;2.13;0.80;;;30.10;95.90;;;;;;4994736;28;20415;-76
2022/07/09 10:07:43;;;;;;;2.50;1.20;;;30.60;94.90;;;;;;4994994;28;20415;-76
2022/07/09 10:10:20;;;;;;;1.90;0.93;;;31.40;94.50;;;;;;4994291;28;20458;-74
2022/07/09 10:12:46;;;;;;;0.90;0.70;;;31.80;94.50;;;;;;4993330;28;20934;-74
2022/07/09 10:15:23;;;;;;;2.33;0.70;;;31.90;93.30;;;;;;4994438;28;20446;-76
2022/07/09 10:17:49;;;;;;;1.53;0.80;;;31.80;92.90;;;;;;4994419;28;20965;-75
2022/07/09 10:20:15;;;;;;;1.63;0.70;;;31.80;92.40;;;;;;4994337;28;20438;-76
2022/07/09 10:22:42;;;;;;;1.83;1.03;;;31.90;91.70;;;;;;4993808;28;20452;-76
2022/07/09 10:25:09;;;;;;;2.20;1.13;;;32.20;92.00;;;;;;4994556;28;20171;-76
2022/07/09 10:27:45;;;;;;;3.17;0.80;;;32.30;91.60;;;;;;4994598;28;20498;-76
2022/07/09 10:30:30;;;;;;;1.87;0.80;;;32.30;91.20;;;;;;4994015;28;20548;-77
2022/07/09 10:33:06;;;;;;;0.70;0.60;;;32.20;87.10;;;;;;4993844;28;20458;-73
2022/07/09 10:35:40;;;;;;;1.00;0.90;;;32.20;88.60;;;;;;4994214;28;20461;-76
2022/07/09 10:38:06;;;;;;;1.07;0.80;;;32.30;87.10;;;;;;4994370;28;20467;-75
2022/07/09 10:40:41;;;;;;;2.77;0.83;;;32.30;87.50;;;;;;4993693;28;20418;-73
2022/07/09 10:43:07;;;;;;;2.40;1.27;;;32.30;89.90;;;;;;4993314;28;20182;-76
2022/07/09 10:45:44;;;;;;;2.43;0.70;;;31.50;87.90;;;;;;4994069;28;20406;-76
2022/07/09 10:48:11;;;;;;;1.80;1.20;;;30.30;90.20;;;;;;4994096;28;20712;-76
2022/07/09 10:50:40;;;;;;;1.73;1.03;;;29.50;91.40;;;;;;4992667;28;20427;-74
2022/07/09 10:53:06;;;;;;;2.07;0.97;;;28.90;92.40;;;;;;4993133;28;20565;-72
2022/07/09 10:55:32;;;;;;;3.60;2.50;;;28.70;93.10;;;;;;4993291;28;20418;-75
2022/07/09 10:57:58;;;;;;;2.20;1.00;;;29.20;92.80;;;;;;4993704;28;20410;-75
2022/07/09 11:00:26;;;;;;;1.53;0.80;;;30.30;91.70;;;;;;4993034;28;20415;-74
2022/07/09 11:02:51;;;;;;;3.40;1.17;;;30.40;90.70;;;;;;4992961;28;20438;-76
2022/07/09 11:05:17;;;;;;;3.77;1.10;;;30.00;91.40;;;;;;4993473;28;20427;-77
2022/07/09 11:07:42;;;;;;;2.93;0.83;;;29.20;93.10;;;;;;4993133;28;20183;-75
2022/07/09 11:10:19;;;;;;;2.73;0.83;;;28.70;92.30;;;;;;4993001;28;20218;-75
2022/07/09 11:12:48;;;;;;;3.67;1.10;;;28.30;93.60;;;;;;4974666;28;20699;-74
2022/07/09 11:15:21;;;;;;;1.97;1.13;;;28.00;94.60;;;;;;4959501;28;21089;-76
2022/07/09 11:17:57;;;;;;;2.80;0.97;;;27.90;94.00;;;;;;4953603;28;20917;-74
2022/07/09 11:20:23;;;;;;;3.77;1.10;;;27.80;94.00;;;;;;4953830;28;20420;-73
2022/07/09 11:22:49;;;;;;;1.30;1.20;;;27.80;93.80;;;;;;4953325;28;20975;-75
2022/07/09 11:25:15;;;;;;;3.00;0.90;;;27.50;93.70;;;;;;4953654;28;20181;-75
2022/07/09 11:27:41;;;;;;;1.43;1.00;;;27.30;94.90;;;;;;4953555;28;20983;-75
2022/07/09 11:30:14;;;;;;;1.10;1.00;;;27.30;95.30;;;;;;4953331;28;20514;-73
2022/07/09 11:32:43;;;;;;;3.73;0.90;;;27.10;95.80;;;;;;4952872;28;20539;-74
2022/07/09 11:35:10;;;;;;;1.17;0.90;;;26.80;96.40;;;;;;4953713;28;20413;-72
2022/07/09 11:37:35;;;;;;;1.00;0.90;;;26.60;97.00;;;;;;4953428;28;20499;-74
2022/07/09 11:40:01;;;;;;;1.63;1.00;;;26.60;96.70;;;;;;4953755;28;20516;-75
2022/07/09 11:42:27;;;;;;;1.37;0.90;;;26.40;96.80;;;;;;4952953;28;20205;-75
2022/07/09 11:44:54;;;;;;;3.17;0.80;;;26.40;97.90;;;;;;4863991;28;20559;-75
2022/07/09 11:47:30;;;;;;;1.80;1.00;;;26.50;98.40;;;;;;4853597;28;20319;-76
2022/07/09 11:50:08;;;;;;;2.17;0.80;;;26.60;97.60;;;;;;4825971;28;21179;-77
2022/07/09 11:52:34;;;;;;;2.30;0.87;;;27.10;98.00;;;;;;4842652;28;20606;-77
2022/07/09 11:55:05;;;;;;;3.80;0.80;;;27.50;97.50;;;;;;4833945;28;20896;-75
2022/07/09 11:57:34;;;;;;;2.37;0.90;;;27.70;96.90;;;;;;4843113;28;20918;-76
2022/07/09 12:00:00;;;;;;;1.30;0.77;;;27.50;96.60;;;;;;4836345;28;20757;-75
2022/07/09 12:02:35;;;;;;;4.07;1.07;;;27.30;97.10;;;;;;4846090;28;20871;-76
2022/07/09 12:05:04;;;;;;;1.70;0.87;;;27.20;97.70;;;;;;4854030;28;20966;-76
2022/07/09 12:07:30;;;;;;;2.50;0.77;;;27.10;97.10;;;;;;4853198;28;21084;-76
2022/07/09 12:10:01;;;;;;;1.57;0.93;;;27.10;97.90;;;;;;4851788;28;20792;-76
2022/07/09 12:12:27;;;;;;;1.50;1.00;;;27.20;98.30;;;;;;4838742;28;20824;-76
2022/07/09 12:14:54;;;;;;;2.40;0.80;;;26.80;97.60;;;;;;4851778;28;20927;-76
2022/07/09 12:17:23;;;;;;;2.30;0.80;;;26.90;97.80;;;;;;4837306;28;20788;-75
2022/07/09 12:19:49;;;;;;;3.27;0.93;;;26.80;98.80;;;;;;4852388;28;20815;-76
2022/07/09 12:22:15;;;;;;;1.43;0.90;;;26.80;99.00;;;;;;4871985;28;20451;-73
2022/07/09 12:24:41;;;;;;;1.17;1.07;;;26.80;98.20;;;;;;4905730;28;20430;-73
2022/07/09 12:27:06;;;;;;;1.97;1.20;;;27.00;97.50;;;;;;4907880;28;20449;-72
2022/07/09 12:29:32;;;;;;;1.60;0.83;;;27.40;98.70;;;;;;4905075;28;20645;-72
2022/07/09 12:31:57;;;;;;;2.13;0.90;;;27.70;98.10;;;;;;4908904;28;20226;-72
2022/07/09 12:34:23;;;;;;;1.27;1.17;;;28.00;98.20;;;;;;4908414;28;20454;-72
2022/07/09 12:36:49;;;;;;;1.93;1.00;;;28.10;97.30;;;;;;4906518;28;20415;-73
2022/07/09 12:39:15;;;;;;;5.70;1.10;;;27.80;96.40;;;;;;4908642;28;20485;-72
2022/07/09 12:41:40;;;;;;;1.60;0.70;;;27.60;97.30;;;;;;4908760;28;20593;-72
2022/07/09 12:44:07;;;;;;;3.53;0.90;;;27.40;97.70;;;;;;4908710;28;20365;-72
2022/07/09 12:46:33;;;;;;;3.90;1.20;;;27.10;97.60;;;;;;4909701;28;20211;-72
2022/07/09 12:48:59;;;;;;;0.60;0.60;;;27.00;97.40;;;;;;4909114;28;20736;-73
2022/07/09 12:51:25;;;;;;;1.30;0.77;;;26.80;96.60;;;;;;4906801;28;20191;-72
2022/07/09 12:53:51;;;;;;;2.47;0.97;;;26.80;97.40;;;;;;4909137;28;20999;-72
2022/07/09 12:56:16;;;;;;;1.27;1.17;;;26.80;98.20;;;;;;4909065;28;20605;-72
2022/07/09 12:58:42;;;;;;;5.20;1.07;;;27.10;99.00;;;;;;4909099;28;20461;-73
2022/07/09 13:01:08;;;;;;;0.80;0.70;;;27.10;98.10;;;;;;4909302;28;20522;-72
2022/07/09 13:03:34;;;;;;;2.73;1.20;;;26.80;98.00;;;;;;4909151;28;20463;-72
2022/07/09 13:06:00;;;;;;;1.80;1.07;;;26.70;98.30;;;;;;4908861;28;20337;-72
2022/07/09 13:08:26;;;;;;;1.73;1.00;;;26.80;98.40;;;;;;4904919;28;20707;-71
2022/07/09 13:10:52;;;;;;;1.83;0.90;;;26.80;97.60;;;;;;4908777;28;20497;-72
2022/07/09 13:13:18;;;;;;;1.97;1.00;;;27.00;97.40;;;;;;4908432;28;20279;-72
2022/07/09 13:15:43;;;;;;;1.07;0.87;;;27.10;97.20;;;;;;4925090;28;20407;-72
2022/07/09 13:18:09;;;;;;;2.20;1.10;;;27.10;98.50;;;;;;4970923;28;20202;-73
2022/07/09 13:20:35;;;;;;;0.97;0.80;;;27.20;96.70;;;;;;4971215;28;20172;-72
2022/07/09 13:23:00;;;;;;;1.13;0.80;;;27.10;96.00;;;;;;4971274;28;20199;-73
2022/07/09 13:25:26;;;;;;;4.20;0.77;;;26.90;96.00;;;;;;4972139;28;20180;-74
2022/07/09 13:27:51;;;;;;;1.37;1.00;;;26.50;96.90;;;;;;4973617;28;20237;-74
2022/07/09 13:30:20;;;;;;;3.77;1.30;;;26.40;97.60;;;;;;4969737;28;20215;-73
2022/07/09 13:32:47;;;;;;;1.17;0.87;;;26.40;97.60;;;;;;4970512;28;20294;-73
2022/07/09 13:35:12;;;;;;;0.90;0.70;;;26.80;97.80;;;;;;4971435;28;20446;-72
2022/07/09 13:37:38;;;;;;;1.23;0.80;;;27.10;97.00;;;;;;4971415;28;20435;-73
2022/07/09 13:40:04;;;;;;;1.27;0.80;;;27.10;96.60;;;;;;4971436;28;20579;-73
2022/07/09 13:42:30;;;;;;;4.50;1.50;;;26.90;96.90;;;;;;4970543;28;20237;-72
2022/07/09 13:44:55;;;;;;;1.17;0.90;;;26.90;97.30;;;;;;4970962;28;20435;-73
2022/07/09 13:47:21;;;;;;;1.53;1.23;;;26.90;97.20;;;;;;4971453;28;20179;-72
2022/07/09 13:49:46;;;;;;;1.57;1.37;;;27.00;98.60;;;;;;4971003;28;20691;-71
2022/07/09 13:52:12;;;;;;;1.10;1.00;;;27.00;98.00;;;;;;4970603;28;20283;-73
2022/07/09 13:54:37;;;;;;;1.27;0.90;;;27.10;97.80;;;;;;4971444;28;20173;-72
2022/07/09 13:57:03;;;;;;;4.10;1.20;;;27.00;97.70;;;;;;4970977;28;20192;-73
2022/07/09 13:59:29;;;;;;;1.40;1.23;;;27.00;97.40;;;;;;4971298;28;20314;-74
2022/07/09 14:01:56;;;;;;;4.80;1.37;;;26.80;96.80;;;;;;4970535;28;20196;-73
2022/07/09 14:04:22;;;;;;;1.80;1.10;;;26.90;97.20;;;;;;4971241;28;20319;-73
2022/07/09 14:06:49;;;;;;;2.93;1.10;;;26.70;97.10;;;;;;4970751;28;20503;-75
2022/07/09 14:09:20;;;;;;;1.27;1.17;;;26.80;99.10;;;;;;4971094;28;20210;-73
2022/07/09 14:11:47;;;;;;;1.53;1.00;;;26.70;97.40;;;;;;4970341;28;20467;-74
2022/07/09 14:14:13;;;;;;;2.20;1.00;;;26.80;97.80;;;;;;4971068;28;20407;-75